createdAt,value
2023-03-16T00:01:58.828Z,24.50
2023-03-16T00:04:00.534Z,24.90
2023-03-16T00:06:17.384Z,24.90
2023-03-16T00:08:19.872Z,25.20
2023-03-16T00:10:27.262Z,24.80
2023-03-16T00:12:29.448Z,24.80
2023-03-16T00:14:35.619Z,24.80
2023-03-16T00:16:37.468Z,24.80
2023-03-16T00:18:41.647Z,24.80
2023-03-16T00:20:44.280Z,24.80
2023-03-16T00:22:46.356Z,24.80
2023-03-16T00:24:48.342Z,24.80
2023-03-16T00:26:50.004Z,25.00
2023-03-16T00:28:54.296Z,25.10
2023-03-16T00:30:58.967Z,24.80
2023-03-16T00:33:05.062Z,24.80
2023-03-16T00:35:09.844Z,24.80
2023-03-16T00:37:15.622Z,25.20
2023-03-16T00:39:20.479Z,25.20
2023-03-16T00:41:24.551Z,25.10
2023-03-16T00:43:28.397Z,25.00
2023-03-16T00:45:30.238Z,25.20
2023-03-16T00:47:35.148Z,25.20
2023-03-16T00:49:39.288Z,26.00
2023-03-16T00:51:45.841Z,25.30
2023-03-16T00:53:47.602Z,25.40
2023-03-16T00:55:51.575Z,25.50
2023-03-16T00:57:55.932Z,25.50
2023-03-16T00:59:57.684Z,25.50
2023-03-16T01:01:59.398Z,25.60
2023-03-16T01:04:01.792Z,25.60
2023-03-16T01:06:10.092Z,25.50
2023-03-16T01:08:11.862Z,25.80
2023-03-16T01:10:16.516Z,25.60
2023-03-16T01:12:19.641Z,25.60
2023-03-16T01:14:25.077Z,25.60
2023-03-16T01:16:27.010Z,25.70
2023-03-16T01:18:29.804Z,25.80
2023-03-16T01:20:33.444Z,25.80
2023-03-16T01:22:35.127Z,25.80
2023-03-16T01:24:38.255Z,25.90
2023-03-16T01:26:41.184Z,26.00
2023-03-16T01:28:44.276Z,26.10
2023-03-16T01:30:46.156Z,26.00
2023-03-16T01:32:49.158Z,26.00
2023-03-16T01:34:51.383Z,25.80
2023-03-16T01:36:54.026Z,25.90
2023-03-16T01:39:06.772Z,25.90
2023-03-16T01:41:17.675Z,25.90
2023-03-16T01:43:23.109Z,26.50
2023-03-16T01:46:02.876Z,26.00
2023-03-16T01:48:05.640Z,26.50
2023-03-16T01:50:07.639Z,26.10
2023-03-16T01:52:19.186Z,26.10
2023-03-16T01:54:33.792Z,26.10
2023-03-16T01:56:44.685Z,26.30
2023-03-16T01:58:47.323Z,26.10
2023-03-16T02:00:49.060Z,26.10
2023-03-16T02:03:05.225Z,26.00
2023-03-16T02:05:31.263Z,26.20
2023-03-16T02:07:39.077Z,26.50
2023-03-16T02:09:49.105Z,26.40
2023-03-16T02:11:54.922Z,26.20
2023-03-16T02:14:05.154Z,26.20
2023-03-16T02:16:08.613Z,26.40
2023-03-16T02:18:12.635Z,26.40
2023-03-16T02:20:39.066Z,26.50
2023-03-16T02:22:47.517Z,26.80
2023-03-16T02:24:51.336Z,26.60
2023-03-16T02:27:04.582Z,26.60
2023-03-16T02:29:29.665Z,26.90
2023-03-16T02:31:32.234Z,26.60
2023-03-16T02:33:35.628Z,26.70
2023-03-16T02:35:38.177Z,26.70
2023-03-16T02:37:41.786Z,26.70
2023-03-16T02:39:44.108Z,26.70
2023-03-16T02:41:48.451Z,26.80
2023-03-16T02:44:00.134Z,27.10
2023-03-16T02:46:09.235Z,26.80
2023-03-16T02:48:20.049Z,26.80
2023-03-16T02:50:24.532Z,26.90
2023-03-16T02:52:26.270Z,26.70
2023-03-16T02:54:32.897Z,26.80
2023-03-16T02:56:34.915Z,26.80
2023-03-16T02:58:36.754Z,26.90
2023-03-16T03:00:43.079Z,26.90
2023-03-16T03:02:45.952Z,26.90
2023-03-16T03:04:48.083Z,26.90
2023-03-16T03:06:51.272Z,26.80
2023-03-16T03:08:54.283Z,26.90
2023-03-16T03:10:57.307Z,27.00
2023-03-16T03:13:01.726Z,27.00
2023-03-16T03:15:04.578Z,27.00
2023-03-16T03:17:14.437Z,27.00
2023-03-16T03:19:16.150Z,27.00
2023-03-16T03:21:18.431Z,26.80
2023-03-16T03:23:20.547Z,27.00
2023-03-16T03:25:23.044Z,27.00
2023-03-16T03:27:26.584Z,27.10
2023-03-16T03:29:34.505Z,26.90
2023-03-16T03:31:39.270Z,27.00
2023-03-16T03:33:41.864Z,26.90
2023-03-16T03:35:43.739Z,27.10
2023-03-16T03:37:45.669Z,27.10
2023-03-16T03:39:48.479Z,27.20
2023-03-16T03:41:55.960Z,27.30
2023-03-16T03:44:01.026Z,27.20
2023-03-16T03:46:04.051Z,27.20
2023-03-16T03:48:08.574Z,27.10
2023-03-16T03:50:11.945Z,27.10
2023-03-16T03:52:26.633Z,27.00
2023-03-16T03:54:28.330Z,27.10
2023-03-16T03:56:36.642Z,27.10
2023-03-16T03:58:44.569Z,27.00
2023-03-16T04:00:49.849Z,27.00
2023-03-16T04:02:51.785Z,27.00
2023-03-16T04:05:01.517Z,27.10
2023-03-16T04:07:07.649Z,27.10
2023-03-16T04:09:09.892Z,27.10
2023-03-16T04:11:14.393Z,27.10
2023-03-16T04:13:17.256Z,27.10
2023-03-16T04:15:19.409Z,27.10
2023-03-16T04:17:34.386Z,27.20
2023-03-16T04:19:39.197Z,27.20
2023-03-16T04:21:48.087Z,27.20
2023-03-16T04:23:54.168Z,27.30
2023-03-16T04:26:01.184Z,27.40
2023-03-16T04:28:03.198Z,27.50
2023-03-16T04:30:11.353Z,27.50
2023-03-16T04:32:15.795Z,27.60
2023-03-16T04:34:18.120Z,27.60
2023-03-16T04:36:20.242Z,27.50
2023-03-16T04:38:22.670Z,27.50
2023-03-16T04:40:30.869Z,27.50
2023-03-16T04:42:41.390Z,27.50
2023-03-16T04:44:48.049Z,27.50
2023-03-16T04:46:50.004Z,27.50
2023-03-16T04:48:53.700Z,27.40
2023-03-16T04:50:55.515Z,28.00
2023-03-16T04:52:58.022Z,27.50
2023-03-16T04:55:00.539Z,27.50
2023-03-16T04:57:03.717Z,27.40
2023-03-16T04:59:16.440Z,27.30
2023-03-16T05:01:28.127Z,27.30
2023-03-16T05:03:34.713Z,27.30
2023-03-16T05:05:39.200Z,27.30
2023-03-16T05:07:42.680Z,27.30
2023-03-16T05:09:44.673Z,27.30
2023-03-16T05:11:46.446Z,27.30
2023-03-16T05:13:50.545Z,27.20
2023-03-16T05:15:55.220Z,27.40
2023-03-16T05:18:02.736Z,27.40
2023-03-16T05:20:08.192Z,27.40
2023-03-16T05:22:15.614Z,27.40
2023-03-16T05:24:32.858Z,27.40
2023-03-16T05:26:34.653Z,27.40
2023-03-16T05:28:37.313Z,27.40
2023-03-16T05:30:42.372Z,27.40
2023-03-16T05:32:54.801Z,27.50
2023-03-16T05:34:56.902Z,27.50
2023-03-16T05:37:01.669Z,27.50
2023-03-16T05:39:06.491Z,27.60
2023-03-16T05:41:12.443Z,27.50
2023-03-16T05:43:37.221Z,27.50
2023-03-16T05:45:39.082Z,27.40
2023-03-16T05:47:49.949Z,27.50
2023-03-16T05:49:52.652Z,27.30
2023-03-16T05:52:06.539Z,27.40
2023-03-16T05:54:10.308Z,27.30
2023-03-16T05:56:18.996Z,27.40
2023-03-16T05:58:21.316Z,27.40
2023-03-16T06:00:25.787Z,27.40
2023-03-16T06:02:40.292Z,27.40
2023-03-16T06:04:42.198Z,27.40
2023-03-16T06:06:43.938Z,27.40
2023-03-16T06:08:52.602Z,27.40
2023-03-16T06:10:56.047Z,27.50
2023-03-16T06:12:59.840Z,27.40
2023-03-16T06:15:02.482Z,27.30
2023-03-16T06:17:05.481Z,27.40
2023-03-16T06:19:08.008Z,27.40
2023-03-16T06:21:10.680Z,27.40
2023-03-16T06:23:13.995Z,27.30
2023-03-16T06:25:16.532Z,27.30
2023-03-16T06:27:20.627Z,27.40
2023-03-16T06:29:40.692Z,27.40
2023-03-16T06:31:42.495Z,27.40
2023-03-16T06:33:46.843Z,27.40
2023-03-16T06:35:50.892Z,27.40
2023-03-16T06:38:01.909Z,27.50
2023-03-16T06:40:30.330Z,27.50
2023-03-16T06:42:32.302Z,27.60
2023-03-16T06:44:34.414Z,27.70
2023-03-16T06:46:43.061Z,27.60
2023-03-16T06:48:47.233Z,27.60
2023-03-16T06:50:49.405Z,27.50
2023-03-16T06:52:56.948Z,27.40
2023-03-16T06:54:58.655Z,27.40
2023-03-16T06:57:01.556Z,27.30
2023-03-16T06:59:03.294Z,27.30
2023-03-16T07:01:05.610Z,27.20
2023-03-16T07:03:07.426Z,27.10
2023-03-16T07:05:14.367Z,27.00
2023-03-16T07:07:17.161Z,26.90
2023-03-16T07:09:18.857Z,26.80
2023-03-16T07:11:23.481Z,26.80
2023-03-16T07:13:25.910Z,27.30
2023-03-16T07:15:27.637Z,26.80
2023-03-16T07:17:32.331Z,27.00
2023-03-16T07:19:34.405Z,27.00
2023-03-16T07:21:40.708Z,27.00
2023-03-16T07:23:46.932Z,26.90
2023-03-16T07:25:53.202Z,26.70
2023-03-16T07:27:55.155Z,26.50
2023-03-16T07:30:05.060Z,26.50
2023-03-16T07:32:10.029Z,26.40
2023-03-16T07:34:13.243Z,26.50
2023-03-16T07:36:22.427Z,26.50
2023-03-16T07:38:30.132Z,26.50
2023-03-16T07:40:34.341Z,26.50
2023-03-16T07:42:42.383Z,26.60
2023-03-16T07:44:45.463Z,26.60
2023-03-16T07:46:48.875Z,26.60
2023-03-16T07:48:51.229Z,26.60
2023-03-16T07:50:54.142Z,26.70
2023-03-16T07:52:59.373Z,26.50
2023-03-16T07:55:01.855Z,26.10
2023-03-16T07:57:06.556Z,26.00
2023-03-16T07:59:13.552Z,25.60
2023-03-16T08:01:16.287Z,25.50
2023-03-16T08:03:18.075Z,25.50
2023-03-16T08:05:21.237Z,25.30
2023-03-16T08:07:27.364Z,25.10
2023-03-16T08:09:36.841Z,25.00
2023-03-16T08:11:41.497Z,25.10
2023-03-16T08:13:44.587Z,25.10
2023-03-16T08:15:49.160Z,25.10
2023-03-16T08:17:59.137Z,24.90
2023-03-16T08:20:01.141Z,24.80
2023-03-16T08:22:03.611Z,24.80
2023-03-16T08:24:13.544Z,24.40
2023-03-16T08:26:17.378Z,24.40
2023-03-16T08:28:21.571Z,24.40
2023-03-16T08:30:25.364Z,24.50
2023-03-16T08:32:43.419Z,24.70
2023-03-16T08:34:48.170Z,24.50
2023-03-16T08:36:49.962Z,24.70
2023-03-16T08:39:06.207Z,24.60
2023-03-16T08:41:12.528Z,24.40
2023-03-16T08:43:17.311Z,24.10
2023-03-16T08:45:19.980Z,24.20
2023-03-16T08:47:27.072Z,24.30
2023-03-16T08:49:29.868Z,23.70
2023-03-16T08:51:39.914Z,23.70
2023-03-16T08:53:41.655Z,23.90
2023-03-16T08:55:43.872Z,23.70
2023-03-16T08:57:48.651Z,23.80
2023-03-16T08:59:51.149Z,23.70
2023-03-16T09:01:53.108Z,23.50
2023-03-16T09:03:54.972Z,22.80
2023-03-16T09:06:05.402Z,22.20
2023-03-16T09:08:07.068Z,22.40
2023-03-16T09:10:13.253Z,22.20
2023-03-16T09:12:15.047Z,21.40
2023-03-16T09:14:16.752Z,21.50
2023-03-16T09:16:20.223Z,21.20
2023-03-16T09:18:23.353Z,20.90
2023-03-16T09:20:35.150Z,20.60
2023-03-16T09:22:43.750Z,20.60
2023-03-16T09:24:45.570Z,19.50
2023-03-16T09:26:47.457Z,19.40
2023-03-16T09:28:49.557Z,19.10
2023-03-16T09:30:51.203Z,19.10
2023-03-16T09:32:52.937Z,19.10
2023-03-16T09:34:57.902Z,19.20
2023-03-16T09:37:01.842Z,19.20
2023-03-16T09:39:04.034Z,18.70
2023-03-16T09:41:30.290Z,19.10
2023-03-16T09:44:10.680Z,18.60
2023-03-16T09:46:28.400Z,18.10
2023-03-16T09:48:32.840Z,17.80
2023-03-16T09:50:48.440Z,17.80
2023-03-16T09:52:55.668Z,17.60
2023-03-16T09:55:01.120Z,17.60
2023-03-16T09:57:18.115Z,17.40
2023-03-16T09:59:20.509Z,17.80
2023-03-16T10:01:43.103Z,17.40
2023-03-16T10:04:11.456Z,17.50
2023-03-16T10:06:14.270Z,16.90
2023-03-16T10:08:31.640Z,16.80
2023-03-16T10:10:46.792Z,16.60
2023-03-16T10:12:55.023Z,16.40
2023-03-16T10:15:17.751Z,16.80
2023-03-16T10:17:36.523Z,16.40
2023-03-16T10:19:47.865Z,16.00
2023-03-16T10:21:52.808Z,16.50
2023-03-16T10:24:07.657Z,16.30
2023-03-16T10:26:25.787Z,16.00
2023-03-16T10:28:31.915Z,16.60
2023-03-16T10:30:36.107Z,17.00
2023-03-16T10:32:38.327Z,16.60
2023-03-16T10:34:40.847Z,17.10
2023-03-16T10:36:45.370Z,15.80
2023-03-16T10:39:08.736Z,15.80
2023-03-16T10:41:23.131Z,15.70
2023-03-16T10:43:25.517Z,15.70
2023-03-16T10:45:33.459Z,14.80
2023-03-16T10:47:35.424Z,14.60
2023-03-16T10:49:42.182Z,14.20
2023-03-16T10:51:44.048Z,14.90
2023-03-16T10:53:46.099Z,14.80
2023-03-16T10:55:48.452Z,14.80
2023-03-16T10:57:55.610Z,14.90
2023-03-16T11:00:11.513Z,15.40
2023-03-16T11:02:20.485Z,13.60
2023-03-16T11:04:24.622Z,12.50
2023-03-16T11:06:30.648Z,12.60
2023-03-16T11:08:38.900Z,12.60
2023-03-16T11:10:55.968Z,12.80
2023-03-16T11:13:19.675Z,12.60
2023-03-16T11:15:26.093Z,12.70
2023-03-16T11:17:45.519Z,12.70
2023-03-16T11:19:57.644Z,12.80
2023-03-16T11:22:14.268Z,12.80
2023-03-16T11:24:23.593Z,12.30
2023-03-16T11:26:35.649Z,11.50
2023-03-16T11:28:41.877Z,11.20
2023-03-16T11:30:59.158Z,11.70
2023-03-16T11:33:09.636Z,12.10
2023-03-16T11:35:41.998Z,11.50
2023-03-16T11:38:04.530Z,11.30
2023-03-16T11:40:33.971Z,11.40
2023-03-16T11:42:42.540Z,11.10
2023-03-16T11:45:18.930Z,10.00
2023-03-16T11:47:42.516Z,10.00
2023-03-16T11:50:03.384Z,10.50
2023-03-16T11:52:32.905Z,10.30
2023-03-16T11:54:48.547Z,10.30
2023-03-16T11:57:16.088Z,10.30
2023-03-16T11:59:40.846Z,10.40
2023-03-16T12:02:01.537Z,11.60
2023-03-16T12:04:20.650Z,11.60
2023-03-16T12:06:40.506Z,11.70
2023-03-16T12:08:57.432Z,11.40
2023-03-16T12:11:22.938Z,11.20
2023-03-16T12:13:38.493Z,10.50
2023-03-16T12:15:56.811Z,10.00
2023-03-16T12:18:12.581Z,10.50
2023-03-16T12:20:29.213Z,10.30
2023-03-16T12:22:44.407Z,10.10
2023-03-16T12:24:53.192Z,9.80
2023-03-16T12:27:03.023Z,9.90
2023-03-16T12:29:59.821Z,9.30
2023-03-16T12:32:22.829Z,8.80
2023-03-16T12:34:58.518Z,8.20
2023-03-16T12:37:09.628Z,8.60
2023-03-16T12:39:45.722Z,8.60
2023-03-16T12:41:50.578Z,8.70
2023-03-16T12:44:24.035Z,8.10
2023-03-16T12:46:48.056Z,8.10
2023-03-16T12:48:55.528Z,8.40
2023-03-16T12:51:00.331Z,8.60
2023-03-16T12:53:06.929Z,8.20
2023-03-16T12:55:15.318Z,8.30
2023-03-16T12:57:18.507Z,8.40
2023-03-16T12:59:22.694Z,7.90
2023-03-16T13:01:43.893Z,7.60
2023-03-16T13:03:49.532Z,6.90
2023-03-16T13:05:55.609Z,7.30
2023-03-16T13:08:16.055Z,7.70
2023-03-16T13:10:20.765Z,7.20
2023-03-16T13:12:36.829Z,7.20
2023-03-16T13:14:42.642Z,7.00
2023-03-16T13:16:46.688Z,6.30
2023-03-16T13:18:52.105Z,6.90
2023-03-16T13:20:58.375Z,6.50
2023-03-16T13:23:18.390Z,6.60
2023-03-16T13:25:30.800Z,6.20
2023-03-16T13:27:36.512Z,6.10
2023-03-16T13:29:39.083Z,6.30
2023-03-16T13:31:42.041Z,7.00
2023-03-16T13:33:44.188Z,7.30
2023-03-16T13:35:47.599Z,7.20
2023-03-16T13:37:49.770Z,7.00
2023-03-16T13:39:55.023Z,7.30
2023-03-16T13:42:07.586Z,7.60
2023-03-16T13:44:14.781Z,7.20
2023-03-16T13:46:20.426Z,7.20
2023-03-16T13:48:22.521Z,7.20
2023-03-16T13:50:24.329Z,7.60
2023-03-16T13:52:29.970Z,7.60
2023-03-16T13:54:31.771Z,7.10
2023-03-16T13:56:33.931Z,7.60
2023-03-16T13:58:39.976Z,7.40
2023-03-16T14:00:45.787Z,7.10
2023-03-16T14:02:54.339Z,7.20
2023-03-16T14:04:56.143Z,7.00
2023-03-16T14:07:02.391Z,7.00
2023-03-16T14:09:17.279Z,6.80
2023-03-16T14:11:19.244Z,7.10
2023-03-16T14:13:32.261Z,7.10
2023-03-16T14:15:37.166Z,6.90
2023-03-16T14:17:49.541Z,6.90
2023-03-16T14:20:04.273Z,6.70
2023-03-16T14:22:06.528Z,6.70
2023-03-16T14:24:36.918Z,7.00
2023-03-16T14:26:47.363Z,6.60
2023-03-16T14:29:05.151Z,6.90
2023-03-16T14:31:14.401Z,7.20
2023-03-16T14:33:28.646Z,6.60
2023-03-16T14:35:41.449Z,6.10
2023-03-16T14:37:44.785Z,6.40
2023-03-16T14:39:58.003Z,6.10
2023-03-16T14:42:04.684Z,5.90
2023-03-16T14:44:18.717Z,6.20
2023-03-16T14:46:27.726Z,6.20
2023-03-16T14:48:30.261Z,6.30
2023-03-16T14:50:34.564Z,6.20
2023-03-16T14:52:37.093Z,5.50
2023-03-16T14:54:38.752Z,6.00
2023-03-16T14:56:42.374Z,6.20
2023-03-16T14:58:44.108Z,5.80
2023-03-16T15:00:53.151Z,5.70
2023-03-16T15:03:03.083Z,6.60
2023-03-16T15:05:08.444Z,5.80
2023-03-16T15:07:26.690Z,6.20
2023-03-16T15:09:43.020Z,6.30
2023-03-16T15:11:44.780Z,5.80
2023-03-16T15:13:47.160Z,5.80
2023-03-16T15:15:49.521Z,6.10
2023-03-16T15:17:52.399Z,5.70
2023-03-16T15:19:55.771Z,5.80
2023-03-16T15:22:00.131Z,5.90
2023-03-16T15:24:02.515Z,6.30
2023-03-16T15:26:09.404Z,5.50
2023-03-16T15:28:21.570Z,5.80
2023-03-16T15:30:28.591Z,5.80
2023-03-16T15:32:34.037Z,5.50
2023-03-16T15:34:35.830Z,5.70
2023-03-16T15:36:37.866Z,5.80
2023-03-16T15:38:43.267Z,6.00
2023-03-16T15:40:48.911Z,6.10
2023-03-16T15:42:50.982Z,6.40
2023-03-16T15:44:53.725Z,6.20
2023-03-16T15:46:55.958Z,6.00
2023-03-16T15:48:57.708Z,6.20
2023-03-16T15:51:23.964Z,6.50
2023-03-16T15:53:31.345Z,6.50
2023-03-16T15:55:40.681Z,6.50
2023-03-16T15:57:42.526Z,7.10
2023-03-16T15:59:45.866Z,7.00
2023-03-16T16:01:48.540Z,7.00
2023-03-16T16:03:53.062Z,6.50
2023-03-16T16:05:56.187Z,6.40
2023-03-16T16:07:59.255Z,6.40
2023-03-16T16:10:02.295Z,6.50
2023-03-16T16:12:04.130Z,6.80
2023-03-16T16:14:13.644Z,6.70
2023-03-16T16:16:17.949Z,6.30
2023-03-16T16:18:33.876Z,6.20
2023-03-16T16:20:35.791Z,6.50
2023-03-16T16:22:38.880Z,6.20
2023-03-16T16:24:40.598Z,5.70
2023-03-16T16:26:52.150Z,5.90
2023-03-16T16:28:58.474Z,6.00
2023-03-16T16:31:04.358Z,5.80
2023-03-16T16:33:27.611Z,5.40
2023-03-16T16:35:32.912Z,5.50
2023-03-16T16:37:34.992Z,6.20
2023-03-16T16:39:36.791Z,5.90
2023-03-16T16:41:39.160Z,5.70
2023-03-16T16:43:43.759Z,5.70
2023-03-16T16:45:45.497Z,5.70
2023-03-16T16:47:51.987Z,6.00
2023-03-16T16:49:53.676Z,5.80
2023-03-16T16:51:55.942Z,6.00
2023-03-16T16:53:59.448Z,6.10
2023-03-16T16:56:02.043Z,6.10
2023-03-16T16:58:07.744Z,6.10
2023-03-16T17:00:23.046Z,5.70
2023-03-16T17:02:33.033Z,5.50
2023-03-16T17:04:34.765Z,5.50
2023-03-16T17:06:36.754Z,5.80
2023-03-16T17:08:41.439Z,6.10
2023-03-16T17:10:43.910Z,5.90
2023-03-16T17:12:45.991Z,5.50
2023-03-16T17:14:48.480Z,5.50
2023-03-16T17:16:51.638Z,5.90
2023-03-16T17:18:55.123Z,6.00
2023-03-16T17:20:56.992Z,5.70
2023-03-16T17:22:58.755Z,5.70
2023-03-16T17:25:01.619Z,5.50
2023-03-16T17:27:04.490Z,5.50
2023-03-16T17:29:17.406Z,5.60
2023-03-16T17:31:25.183Z,5.80
2023-03-16T17:33:28.265Z,5.90
2023-03-16T17:35:30.429Z,6.00
2023-03-16T17:37:32.518Z,5.80
2023-03-16T17:39:34.784Z,5.80
2023-03-16T17:41:40.588Z,5.70
2023-03-16T17:43:42.261Z,5.80
2023-03-16T17:45:46.616Z,5.50
2023-03-16T17:47:50.270Z,5.60
2023-03-16T17:49:54.973Z,5.40
2023-03-16T17:51:59.629Z,5.50
2023-03-16T17:54:01.526Z,5.50
2023-03-16T17:56:03.535Z,5.50
2023-03-16T17:58:05.805Z,5.60
2023-03-16T18:00:36.573Z,5.70
2023-03-16T18:02:57.157Z,5.80
2023-03-16T18:05:01.023Z,6.10
2023-03-16T18:07:02.962Z,6.20
2023-03-16T18:09:04.599Z,6.20
2023-03-16T18:11:16.591Z,6.30
2023-03-16T18:13:20.661Z,6.30
2023-03-16T18:15:24.205Z,6.30
2023-03-16T18:17:29.903Z,6.30
2023-03-16T18:19:32.215Z,6.40
2023-03-16T18:21:36.501Z,6.50
2023-03-16T18:23:38.206Z,6.50
2023-03-16T18:25:40.251Z,6.50
2023-03-16T18:27:42.192Z,6.50
2023-03-16T18:29:46.928Z,6.40
2023-03-16T18:31:56.147Z,6.60
2023-03-16T18:34:00.795Z,6.70
2023-03-16T18:36:07.747Z,6.90
2023-03-16T18:38:23.119Z,7.00
2023-03-16T18:40:25.898Z,6.90
2023-03-16T18:42:29.699Z,7.10
2023-03-16T18:44:31.715Z,7.10
2023-03-16T18:46:36.961Z,7.10
2023-03-16T18:48:38.653Z,7.30
2023-03-16T18:50:43.573Z,7.40
2023-03-16T18:52:48.601Z,7.50
2023-03-16T18:54:54.205Z,7.50
2023-03-16T18:56:58.657Z,7.50
2023-03-16T18:59:00.383Z,7.70
2023-03-16T19:01:02.590Z,8.30
2023-03-16T19:03:05.618Z,7.70
2023-03-16T19:05:16.833Z,7.90
2023-03-16T19:07:36.070Z,8.10
2023-03-16T19:09:38.999Z,8.20
2023-03-16T19:11:44.888Z,8.10
2023-03-16T19:13:47.420Z,8.30
2023-03-16T19:15:53.847Z,8.30
2023-03-16T19:17:58.281Z,8.30
2023-03-16T19:20:00.027Z,8.50
2023-03-16T19:22:09.704Z,8.40
2023-03-16T19:24:25.874Z,8.30
2023-03-16T19:26:27.988Z,8.50
2023-03-16T19:28:34.132Z,8.60
2023-03-16T19:30:41.630Z,8.40
2023-03-16T19:32:43.441Z,8.50
2023-03-16T19:34:47.584Z,8.60
2023-03-16T19:36:49.574Z,8.70
2023-03-16T19:38:51.644Z,8.50
2023-03-16T19:41:00.847Z,8.70
2023-03-16T19:43:02.608Z,8.80
2023-03-16T19:45:07.379Z,8.80
2023-03-16T19:47:30.890Z,8.80
2023-03-16T19:49:33.062Z,8.90
2023-03-16T19:51:34.793Z,8.90
2023-03-16T19:53:36.460Z,9.00
2023-03-16T19:55:38.229Z,9.00
2023-03-16T19:57:40.059Z,9.00
2023-03-16T19:59:43.547Z,9.10
2023-03-16T20:01:46.744Z,9.00
2023-03-16T20:03:49.671Z,9.10
2023-03-16T20:05:52.284Z,9.00
2023-03-16T20:07:57.200Z,9.10
2023-03-16T20:09:58.874Z,9.10
2023-03-16T20:12:00.716Z,9.20
2023-03-16T20:14:05.812Z,9.20
2023-03-16T20:16:15.321Z,9.20
2023-03-16T20:18:18.901Z,9.20
2023-03-16T20:20:26.491Z,9.30
2023-03-16T20:22:31.107Z,9.20
2023-03-16T20:24:36.082Z,9.30
2023-03-16T20:26:37.836Z,9.40
2023-03-16T20:28:39.713Z,9.50
2023-03-16T20:30:47.063Z,9.60
2023-03-16T20:32:49.184Z,9.70
2023-03-16T20:34:51.573Z,9.80
2023-03-16T20:36:54.026Z,9.80
2023-03-16T20:38:55.927Z,9.80
2023-03-16T20:40:57.761Z,10.00
2023-03-16T20:42:59.803Z,10.00
2023-03-16T20:45:18.788Z,10.00
2023-03-16T20:47:23.006Z,10.10
2023-03-16T20:49:25.315Z,10.20
2023-03-16T20:51:28.611Z,10.30
2023-03-16T20:53:30.318Z,10.30
2023-03-16T20:55:37.285Z,10.40
2023-03-16T20:57:40.106Z,10.50
2023-03-16T20:59:43.372Z,10.50
2023-03-16T21:01:49.133Z,10.50
2023-03-16T21:03:55.942Z,10.60
2023-03-16T21:05:59.791Z,10.60
2023-03-16T21:08:01.806Z,10.60
2023-03-16T21:10:03.577Z,10.60
2023-03-16T21:12:07.263Z,10.60
2023-03-16T21:14:16.868Z,10.60
2023-03-16T21:16:19.908Z,10.80
2023-03-16T21:18:22.232Z,10.80
2023-03-16T21:20:26.107Z,10.90
2023-03-16T21:22:31.846Z,11.10
2023-03-16T21:24:37.132Z,11.20
2023-03-16T21:26:40.960Z,11.20
2023-03-16T21:28:47.224Z,11.20
2023-03-16T21:31:00.116Z,11.20
2023-03-16T21:33:02.249Z,11.20
2023-03-16T21:35:07.545Z,11.20
2023-03-16T21:37:15.393Z,11.20
2023-03-16T21:39:22.535Z,11.20
2023-03-16T21:41:24.492Z,11.20
2023-03-16T21:43:27.357Z,11.20
2023-03-16T21:45:31.757Z,11.20
2023-03-16T21:47:39.781Z,11.20
2023-03-16T21:49:51.398Z,11.20
2023-03-16T21:51:55.574Z,11.20
2023-03-16T21:53:58.023Z,11.20
2023-03-16T21:56:00.290Z,11.20
2023-03-16T21:58:06.040Z,11.40
2023-03-16T22:00:10.255Z,11.40
2023-03-16T22:02:24.283Z,11.60
2023-03-16T22:04:28.913Z,11.60
2023-03-16T22:06:31.276Z,11.60
2023-03-16T22:08:34.325Z,11.70
2023-03-16T22:10:36.374Z,11.70
2023-03-16T22:12:38.748Z,11.70
2023-03-16T22:14:40.630Z,11.80
2023-03-16T22:16:42.440Z,11.70
2023-03-16T22:18:46.992Z,11.90
2023-03-16T22:20:48.890Z,11.80
2023-03-16T22:22:54.976Z,11.90
2023-03-16T22:24:57.082Z,12.00
2023-03-16T22:26:59.314Z,11.90
2023-03-16T22:29:01.713Z,12.00
2023-03-16T22:31:04.678Z,12.10
2023-03-16T22:33:06.386Z,12.10
2023-03-16T22:35:25.082Z,12.00
2023-03-16T22:37:28.883Z,12.20
2023-03-16T22:39:37.882Z,12.10
2023-03-16T22:41:39.566Z,12.10
2023-03-16T22:43:44.760Z,12.20
2023-03-16T22:45:51.434Z,12.20
2023-03-16T22:47:56.063Z,12.20
2023-03-16T22:49:58.390Z,12.10
2023-03-16T22:52:00.332Z,12.10
2023-03-16T22:54:07.256Z,12.00
2023-03-16T22:56:11.669Z,12.20
2023-03-16T22:58:31.851Z,12.20
2023-03-16T23:00:36.947Z,12.90
2023-03-16T23:02:40.932Z,12.20
2023-03-16T23:04:42.780Z,12.40
2023-03-16T23:06:46.102Z,12.40
2023-03-16T23:08:48.220Z,12.50
2023-03-16T23:10:51.915Z,12.40
2023-03-16T23:12:54.266Z,12.50
2023-03-16T23:14:56.164Z,12.50
2023-03-16T23:17:00.321Z,12.50
2023-03-16T23:19:03.253Z,12.60
2023-03-16T23:21:05.258Z,12.70
2023-03-16T23:23:07.687Z,12.70
2023-03-16T23:25:09.650Z,12.70
2023-03-16T23:27:18.003Z,12.70
2023-03-16T23:29:23.398Z,12.90
2023-03-16T23:31:27.182Z,12.90
2023-03-16T23:33:28.908Z,12.90
2023-03-16T23:35:31.748Z,13.00
2023-03-16T23:37:33.527Z,13.00
2023-03-16T23:39:35.309Z,13.10
2023-03-16T23:41:42.188Z,13.00
2023-03-16T23:43:45.847Z,13.10
2023-03-16T23:45:51.002Z,13.10
2023-03-16T23:47:54.762Z,13.10
2023-03-16T23:49:56.677Z,13.10
2023-03-16T23:52:00.583Z,13.10
2023-03-16T23:54:11.009Z,13.20
2023-03-16T23:56:12.708Z,13.30
2023-03-16T23:58:16.397Z,13.30
